Αρχική σελίδα
METAR-TAF:

METAR-TAF

Αεροδρόμια :

Μεντόζα, Αργεντινή

γεωγραφικό πλάτος: 32-50S, γεωγραφικό μήκος: 068-47W, υψόμετρο: 705 μ

Παρών καιρός

Η αναφορά έγινε 1 ώρα και 7 λεπτά πριν, στις 03:00 UTC
Άνεμος 3 kt από Δ
Θερμοκρασία 5°C
Υγρασία 70%
Πίεση 1022 hPa
Ορατότητα 10 χλμ και άνω
Δεν υπάρχουν νέφη με βάση κάτω από τα 1500 μ. και δεν υπάρχουν νέφη σωρειτομελανίτες.

METAR: SAME 180300Z 27003KT CAVOK 05/00 Q1022

Χρόνος: 01:07 (04:07 UTC)

Πρόγνωση Καιρού

Η αναφορά έγινε 5 ώρες και 7 λεπτά πριν, στις 23:00 UTC
Η πρόγνωση ισχύει από τις 18 στις 00 UTC έως τις 18 στις 24 UTC
Άνεμος 5 kt από Β/BA
Ορατότητα 10 χλμ και άνω
Δεν υπάρχουν νέφη με βάση κάτω από τα 1500 μ. και δεν υπάρχουν νέφη σωρειτομελανίτες.

TAF: SAME 172300Z 1800/1824 03005KT CAVOK TX18/1820Z TN01/1810Z

Μετεωρολογικές αναφορές και προγνώσεις για περισσότερα από 4000 αεροδρόμια (δελτία METAR και TAF).

Οι διαθέσιμοι σταθμοί απεικονίζονται στο χάρτη με κίτρινες και κόκκινες κουκκίδες.

Μετακινήστε το ποντίκι πάνω από τις κουκκίδες για να δείτε το όνομα του σταθμού.

Στη συνέχεια, κάντε κλικ για να δείτε τις μετεωρολογικές αναφορές και τις προγνώσεις καιρού.

Για να αλλάξετε το χάρτη: κάντε κλικ στα πράσινα κουμπιά με τον μαύρο σταυρό για να ζουμάρετε, στο πράσινο κουμπί με την παύλα για να αφαιρέσετε το ζουμ ή στα πράσινα βέλη για να αντιπαραβάλλετε χάρτες.


METAR-TAF: